createdAt,value
2019-03-29T00:01:56.231Z,19.70
2019-03-29T00:04:23.841Z,24.47
2019-03-29T00:06:53.276Z,19.17
2019-03-29T00:09:20.814Z,21.43
2019-03-29T00:11:48.224Z,22.23
2019-03-29T00:14:15.930Z,20.00
2019-03-29T00:16:43.473Z,19.47
2019-03-29T00:19:10.787Z,22.87
2019-03-29T00:21:39.081Z,24.27
2019-03-29T00:24:07.467Z,23.80
2019-03-29T00:26:34.752Z,24.90
2019-03-29T00:29:03.061Z,23.00
2019-03-29T00:31:30.974Z,28.93
2019-03-29T00:33:59.664Z,25.73
2019-03-29T00:36:27.312Z,23.30
2019-03-29T00:38:55.162Z,25.63
2019-03-29T00:41:22.823Z,25.90
2019-03-29T00:43:50.140Z,22.63
2019-03-29T00:46:17.455Z,27.17
2019-03-29T00:48:45.000Z,22.93
2019-03-29T00:51:12.323Z,25.97
2019-03-29T00:53:39.624Z,23.10
2019-03-29T00:56:07.436Z,24.93
2019-03-29T00:58:35.220Z,22.27
2019-03-29T01:01:02.884Z,22.23
2019-03-29T01:03:30.196Z,25.70
2019-03-29T01:05:57.568Z,24.63
2019-03-29T01:08:25.280Z,23.20
2019-03-29T01:10:52.589Z,22.80
2019-03-29T01:13:20.032Z,20.43
2019-03-29T01:15:47.344Z,27.50
2019-03-29T01:18:14.724Z,27.23
2019-03-29T01:20:42.041Z,23.33
2019-03-29T01:23:09.552Z,25.30
2019-03-29T01:25:37.229Z,28.37
2019-03-29T01:28:04.895Z,25.70
2019-03-29T01:30:32.413Z,25.33
2019-03-29T01:32:59.725Z,24.63
2019-03-29T01:35:27.248Z,22.20
2019-03-29T01:37:54.916Z,23.47
2019-03-29T01:40:22.356Z,26.70
2019-03-29T01:42:49.828Z,27.03
2019-03-29T01:45:17.760Z,26.40
2019-03-29T01:47:45.349Z,24.17
2019-03-29T01:50:14.003Z,24.23
2019-03-29T01:52:41.320Z,24.03
2019-03-29T01:55:09.764Z,27.50
2019-03-29T01:57:37.072Z,23.27
2019-03-29T02:00:05.905Z,27.30
2019-03-29T02:02:33.974Z,25.90
2019-03-29T02:05:01.595Z,27.57
2019-03-29T02:07:29.499Z,28.80
2019-03-29T02:09:57.134Z,24.77
2019-03-29T02:12:24.614Z,27.30
2019-03-29T02:14:52.026Z,26.57
2019-03-29T02:17:19.341Z,28.40
2019-03-29T02:19:47.400Z,25.20
2019-03-29T02:22:14.844Z,30.70
2019-03-29T02:24:42.303Z,25.87
2019-03-29T02:27:09.616Z,26.53
2019-03-29T02:29:37.220Z,28.70
2019-03-29T02:32:04.690Z,24.67
2019-03-29T02:34:32.944Z,24.90
2019-03-29T02:37:01.937Z,26.60
2019-03-29T02:39:29.909Z,25.33
2019-03-29T02:41:57.350Z,26.87
2019-03-29T02:44:24.825Z,26.50
2019-03-29T02:46:53.573Z,22.90
2019-03-29T02:49:21.167Z,24.10
2019-03-29T02:51:48.619Z,27.73
2019-03-29T02:54:15.937Z,26.73
2019-03-29T02:56:43.528Z,24.97
2019-03-29T02:59:10.884Z,24.40
2019-03-29T03:01:38.279Z,25.20
2019-03-29T03:04:05.590Z,26.53
2019-03-29T03:06:33.143Z,25.23
2019-03-29T03:09:13.298Z,27.30
2019-03-29T03:11:29.908Z,24.90
2019-03-29T03:13:57.238Z,24.87
2019-03-29T03:16:24.800Z,28.40
2019-03-29T03:18:52.129Z,27.43
2019-03-29T03:21:19.713Z,28.33
2019-03-29T03:23:47.022Z,23.17
2019-03-29T03:26:14.547Z,24.83
2019-03-29T03:28:42.105Z,23.80
2019-03-29T03:31:09.489Z,26.30
2019-03-29T03:33:37.004Z,24.53
2019-03-29T03:36:04.861Z,26.37
2019-03-29T03:38:32.227Z,23.93
2019-03-29T03:41:00.444Z,25.30
2019-03-29T03:43:27.749Z,24.50
2019-03-29T03:45:55.073Z,25.57
2019-03-29T03:48:22.755Z,24.33
2019-03-29T03:50:50.662Z,26.30
2019-03-29T03:53:17.957Z,28.20
2019-03-29T03:55:45.299Z,26.30
2019-03-29T03:58:13.283Z,27.47
2019-03-29T04:00:57.262Z,30.47
2019-03-29T04:03:25.104Z,30.90
2019-03-29T04:05:52.410Z,28.67
2019-03-29T04:08:20.021Z,27.37
2019-03-29T04:10:47.405Z,30.87
2019-03-29T04:13:14.716Z,31.17
2019-03-29T04:15:42.300Z,29.80
2019-03-29T04:18:09.837Z,24.70
2019-03-29T04:20:37.228Z,27.60
2019-03-29T04:23:04.958Z,29.03
2019-03-29T04:25:32.259Z,28.50
2019-03-29T04:28:00.275Z,27.97
2019-03-29T04:30:27.737Z,28.60
2019-03-29T04:32:55.581Z,23.37
2019-03-29T04:35:23.045Z,27.47
2019-03-29T04:37:50.357Z,27.83
2019-03-29T04:40:18.573Z,27.07
2019-03-29T04:42:46.443Z,30.47
2019-03-29T04:45:13.750Z,26.03
2019-03-29T04:47:41.076Z,25.57
2019-03-29T04:50:08.627Z,25.73
2019-03-29T04:52:35.992Z,23.27
2019-03-29T04:55:04.468Z,27.47
2019-03-29T04:57:32.202Z,26.80
2019-03-29T04:59:59.693Z,27.67
2019-03-29T05:02:27.153Z,27.77
2019-03-29T05:04:54.461Z,26.23
2019-03-29T05:07:22.433Z,25.47
2019-03-29T05:09:49.911Z,33.43
2019-03-29T05:12:17.211Z,41.83
2019-03-29T05:14:44.525Z,31.43
2019-03-29T05:17:11.891Z,26.83
2019-03-29T05:19:39.292Z,26.27
2019-03-29T05:22:06.954Z,30.03
2019-03-29T05:24:34.959Z,25.13
2019-03-29T05:27:02.274Z,22.87
2019-03-29T05:29:29.935Z,25.00
2019-03-29T05:31:58.027Z,24.17
2019-03-29T05:34:25.468Z,23.43
2019-03-29T05:36:53.434Z,25.50
2019-03-29T05:39:20.984Z,32.17
2019-03-29T05:41:48.440Z,63.70
2019-03-29T05:44:16.321Z,37.50
2019-03-29T05:46:44.176Z,22.07
2019-03-29T05:49:11.484Z,26.57
2019-03-29T05:51:38.804Z,23.73
2019-03-29T05:54:06.823Z,24.53
2019-03-29T05:56:34.132Z,31.80
2019-03-29T05:59:01.890Z,27.43
2019-03-29T06:01:29.200Z,23.43
2019-03-29T06:03:56.512Z,25.33
2019-03-29T06:06:24.837Z,22.90
2019-03-29T06:08:52.725Z,23.30
2019-03-29T06:11:20.068Z,23.10
2019-03-29T06:13:47.460Z,38.13
2019-03-29T06:16:15.294Z,36.20
2019-03-29T06:18:42.592Z,26.70
2019-03-29T06:21:10.188Z,24.93
2019-03-29T06:23:37.646Z,26.20
2019-03-29T06:26:05.036Z,23.03
2019-03-29T06:28:32.345Z,22.83
2019-03-29T06:30:59.664Z,21.23
2019-03-29T06:33:27.892Z,25.07
2019-03-29T06:35:55.926Z,48.47
2019-03-29T06:38:23.767Z,30.70
2019-03-29T06:41:02.275Z,48.43
2019-03-29T06:43:20.713Z,26.30
2019-03-29T06:45:48.542Z,19.30
2019-03-29T06:48:16.768Z,17.43
2019-03-29T06:50:44.186Z,14.90
2019-03-29T06:53:11.536Z,20.63
2019-03-29T06:55:38.916Z,18.60
2019-03-29T06:58:06.228Z,16.60
2019-03-29T07:00:33.540Z,15.00
2019-03-29T07:03:00.917Z,15.43
2019-03-29T07:05:28.259Z,17.13
2019-03-29T07:07:55.768Z,14.27
2019-03-29T07:10:23.804Z,14.73
2019-03-29T07:12:51.359Z,13.03
2019-03-29T07:15:18.720Z,13.63
2019-03-29T07:17:46.152Z,13.93
2019-03-29T07:20:15.881Z,16.03
2019-03-29T07:22:43.549Z,12.77
2019-03-29T07:25:10.928Z,15.43
2019-03-29T07:27:44.766Z,13.43
2019-03-29T07:30:07.609Z,12.40
2019-03-29T07:32:34.928Z,26.07
2019-03-29T07:35:03.702Z,20.08
2019-03-29T07:37:31.549Z,13.65
2019-03-29T07:39:59.829Z,12.37
2019-03-29T07:42:27.268Z,13.32
2019-03-29T07:44:54.584Z,14.80
2019-03-29T07:47:22.189Z,12.88
2019-03-29T07:49:49.510Z,12.00
2019-03-29T07:52:16.875Z,11.40
2019-03-29T07:54:44.827Z,13.13
2019-03-29T07:57:12.829Z,11.70
2019-03-29T07:59:40.147Z,11.65
2019-03-29T08:02:07.524Z,11.08
2019-03-29T08:04:34.905Z,12.28
2019-03-29T08:07:02.300Z,11.40
2019-03-29T08:09:29.698Z,10.50
2019-03-29T08:11:57.012Z,13.05
2019-03-29T08:14:24.888Z,10.50
2019-03-29T08:16:52.184Z,11.05
2019-03-29T08:19:19.543Z,9.00
2019-03-29T08:21:47.051Z,8.50
2019-03-29T08:24:14.856Z,9.65
2019-03-29T08:26:42.528Z,8.68
2019-03-29T08:29:09.831Z,8.10
2019-03-29T08:31:37.375Z,7.75
2019-03-29T08:34:04.864Z,8.25
2019-03-29T08:36:32.166Z,7.12
2019-03-29T08:38:59.608Z,6.70
2019-03-29T08:41:26.916Z,7.05
2019-03-29T08:43:54.477Z,6.25
2019-03-29T08:46:21.804Z,6.58
2019-03-29T08:48:49.393Z,5.60
2019-03-29T08:51:16.694Z,6.75
2019-03-29T08:53:44.296Z,5.97
2019-03-29T08:56:12.222Z,6.75
2019-03-29T08:58:39.608Z,6.03
2019-03-29T09:01:06.913Z,7.47
2019-03-29T09:03:34.990Z,6.00
2019-03-29T09:06:02.883Z,6.60
2019-03-29T09:08:30.240Z,5.97
2019-03-29T09:10:57.788Z,5.67
2019-03-29T09:13:25.172Z,14.07
2019-03-29T09:15:52.864Z,6.58
2019-03-29T09:18:20.165Z,5.70
2019-03-29T09:20:47.485Z,5.00
2019-03-29T09:23:15.004Z,5.72
2019-03-29T09:25:42.400Z,4.75
2019-03-29T09:28:09.702Z,4.90
2019-03-29T09:30:37.365Z,4.70
2019-03-29T09:33:04.672Z,4.37
2019-03-29T09:35:32.276Z,4.75
2019-03-29T09:37:59.584Z,4.80
2019-03-29T09:40:27.398Z,4.75
2019-03-29T09:43:06.672Z,3.83
2019-03-29T09:45:23.945Z,5.22
2019-03-29T09:47:51.832Z,3.92
2019-03-29T09:50:22.727Z,4.85
2019-03-29T09:52:51.282Z,3.87
2019-03-29T09:55:19.231Z,3.83
2019-03-29T09:57:47.571Z,3.00
2019-03-29T10:00:22.398Z,4.15
2019-03-29T10:02:44.266Z,3.58
2019-03-29T10:05:11.671Z,3.20
2019-03-29T10:07:40.060Z,2.87
2019-03-29T10:10:08.559Z,3.17
2019-03-29T10:12:43.390Z,2.92
2019-03-29T10:15:06.491Z,2.58
2019-03-29T10:17:33.970Z,2.83
2019-03-29T10:20:01.295Z,3.30
2019-03-29T10:22:28.671Z,3.25
2019-03-29T10:24:56.128Z,3.22
2019-03-29T10:27:23.427Z,3.40
2019-03-29T10:29:50.883Z,3.15
2019-03-29T10:32:18.294Z,3.15
2019-03-29T10:34:46.178Z,2.80
2019-03-29T10:37:13.724Z,3.00
2019-03-29T10:39:41.281Z,3.08
2019-03-29T10:42:08.585Z,2.77
2019-03-29T10:44:35.891Z,2.98
2019-03-29T10:47:03.448Z,3.25
2019-03-29T10:49:30.758Z,3.22
2019-03-29T10:51:58.343Z,3.10
2019-03-29T10:54:25.787Z,2.80
2019-03-29T10:56:53.089Z,2.83
2019-03-29T10:59:27.278Z,3.15
2019-03-29T11:01:49.543Z,2.90
2019-03-29T11:04:17.266Z,2.50
2019-03-29T11:06:44.636Z,3.35
2019-03-29T11:09:11.945Z,3.15
2019-03-29T11:11:39.246Z,2.80
2019-03-29T11:14:06.881Z,2.83
2019-03-29T11:16:34.181Z,3.17
2019-03-29T11:19:01.717Z,2.92
2019-03-29T11:21:29.038Z,2.72
2019-03-29T11:23:56.502Z,3.05
2019-03-29T11:26:23.804Z,2.85
2019-03-29T11:28:52.104Z,2.37
2019-03-29T11:31:19.718Z,2.30
2019-03-29T11:33:47.016Z,2.40
2019-03-29T11:36:14.573Z,2.98
2019-03-29T11:38:42.455Z,3.33
2019-03-29T11:41:09.765Z,4.47
2019-03-29T11:43:37.365Z,4.15
2019-03-29T11:46:05.025Z,3.33
2019-03-29T11:48:33.041Z,3.85
2019-03-29T11:51:00.378Z,4.10
2019-03-29T11:53:27.806Z,4.40
2019-03-29T11:55:55.263Z,3.85
2019-03-29T11:58:22.916Z,10.55
2019-03-29T12:00:50.378Z,3.90
2019-03-29T12:03:17.752Z,3.52
2019-03-29T12:05:45.065Z,3.30
2019-03-29T12:08:12.532Z,3.47
2019-03-29T12:10:39.979Z,3.80
2019-03-29T12:13:07.861Z,3.70
2019-03-29T12:15:35.518Z,3.75
2019-03-29T12:18:02.985Z,3.95
2019-03-29T12:20:30.292Z,4.10
2019-03-29T12:22:57.601Z,3.70
2019-03-29T12:25:25.141Z,17.70
2019-03-29T12:27:52.443Z,5.05
2019-03-29T12:30:31.395Z,5.67
2019-03-29T12:32:49.353Z,4.30
2019-03-29T12:35:16.659Z,4.08
2019-03-29T12:37:43.968Z,4.25
2019-03-29T12:40:12.133Z,4.00
2019-03-29T12:42:39.429Z,3.50
2019-03-29T12:45:07.013Z,3.37
2019-03-29T12:47:34.486Z,3.33
2019-03-29T12:50:01.973Z,4.45
2019-03-29T12:52:29.428Z,2.92
2019-03-29T12:54:56.729Z,3.77
2019-03-29T12:57:24.058Z,4.10
2019-03-29T12:59:51.570Z,4.47
2019-03-29T13:02:18.870Z,4.90
2019-03-29T13:04:47.411Z,4.17
2019-03-29T13:07:14.957Z,4.72
2019-03-29T13:09:42.276Z,4.03
2019-03-29T13:12:09.868Z,4.17
2019-03-29T13:14:37.175Z,4.67
2019-03-29T13:17:04.779Z,3.15
2019-03-29T13:19:32.236Z,3.60
2019-03-29T13:21:59.604Z,3.40
2019-03-29T13:24:27.340Z,2.75
2019-03-29T13:26:54.996Z,3.33
2019-03-29T13:29:22.300Z,3.05
2019-03-29T13:31:50.251Z,3.45
2019-03-29T13:34:17.778Z,2.80
2019-03-29T13:36:45.085Z,4.78
2019-03-29T13:39:12.895Z,5.25
2019-03-29T13:41:40.353Z,4.35
2019-03-29T13:44:07.660Z,4.22
2019-03-29T13:46:35.053Z,2.95
2019-03-29T13:49:02.723Z,3.55
2019-03-29T13:51:30.203Z,3.27
2019-03-29T13:53:57.832Z,2.80
2019-03-29T13:56:25.293Z,3.62
2019-03-29T13:58:53.163Z,2.77
2019-03-29T14:01:20.608Z,2.65
2019-03-29T14:03:47.916Z,3.52
2019-03-29T14:06:15.731Z,7.28
2019-03-29T14:08:43.185Z,10.15
2019-03-29T14:11:10.492Z,4.13
2019-03-29T14:13:37.885Z,2.85
2019-03-29T14:16:05.195Z,2.33
2019-03-29T14:18:32.617Z,3.65
2019-03-29T14:21:00.040Z,2.33
2019-03-29T14:23:27.344Z,2.37
2019-03-29T14:25:54.754Z,5.07
2019-03-29T14:28:22.066Z,4.13
2019-03-29T14:30:49.367Z,2.70
2019-03-29T14:33:17.140Z,3.55
2019-03-29T14:35:44.432Z,2.60
2019-03-29T14:38:12.013Z,3.90
2019-03-29T14:40:40.023Z,2.60
2019-03-29T14:43:07.349Z,3.93
2019-03-29T14:45:34.641Z,2.33
2019-03-29T14:48:02.481Z,1.90
2019-03-29T14:50:29.922Z,4.47
2019-03-29T14:52:57.220Z,6.07
2019-03-29T14:55:24.847Z,3.00
2019-03-29T14:57:52.285Z,2.87
2019-03-29T15:00:21.395Z,2.87
2019-03-29T15:02:48.691Z,3.27
2019-03-29T15:05:16.515Z,2.00
2019-03-29T15:07:43.965Z,2.87
2019-03-29T15:10:27.600Z,1.90
2019-03-29T15:12:55.376Z,2.60
2019-03-29T15:15:22.692Z,2.10
2019-03-29T15:17:50.372Z,2.43
2019-03-29T15:20:17.673Z,4.13
2019-03-29T15:22:45.281Z,2.90
2019-03-29T15:25:13.144Z,3.27
2019-03-29T15:27:40.448Z,4.03
2019-03-29T15:30:08.180Z,2.97
2019-03-29T15:32:35.492Z,4.90
2019-03-29T15:35:03.079Z,3.43
2019-03-29T15:37:30.629Z,3.43
2019-03-29T15:39:58.284Z,3.00
2019-03-29T15:42:25.584Z,4.23
2019-03-29T15:44:53.407Z,3.30
2019-03-29T15:47:20.852Z,3.73
2019-03-29T15:49:55.898Z,2.87
2019-03-29T15:52:17.420Z,2.57
2019-03-29T15:54:44.728Z,3.20
2019-03-29T15:57:12.317Z,8.70
2019-03-29T15:59:39.853Z,4.83
2019-03-29T16:02:07.433Z,4.37
2019-03-29T16:04:34.739Z,3.30
2019-03-29T16:07:02.382Z,3.73
2019-03-29T16:09:29.724Z,3.10
2019-03-29T16:11:57.040Z,4.17
2019-03-29T16:14:24.503Z,9.17
2019-03-29T16:16:51.813Z,6.90
2019-03-29T16:19:19.831Z,4.60
2019-03-29T16:21:47.136Z,10.03
2019-03-29T16:24:14.545Z,7.33
2019-03-29T16:26:42.396Z,7.07
2019-03-29T16:29:09.705Z,4.00
2019-03-29T16:31:37.312Z,3.67
2019-03-29T16:34:04.616Z,4.13
2019-03-29T16:36:32.005Z,5.10
2019-03-29T16:38:59.392Z,4.50
2019-03-29T16:41:26.933Z,4.33
2019-03-29T16:43:54.388Z,5.90
2019-03-29T16:46:21.859Z,6.97
2019-03-29T16:48:49.190Z,8.23
2019-03-29T16:51:17.068Z,5.00
2019-03-29T16:53:44.410Z,4.80
2019-03-29T16:56:12.231Z,4.37
2019-03-29T16:58:40.136Z,6.07
2019-03-29T17:01:07.801Z,4.77
2019-03-29T17:03:35.676Z,5.20
2019-03-29T17:06:03.005Z,5.30
2019-03-29T17:08:30.299Z,7.13
2019-03-29T17:10:57.829Z,8.23
2019-03-29T17:13:25.483Z,6.23
2019-03-29T17:16:01.650Z,5.97
2019-03-29T17:18:29.121Z,5.77
2019-03-29T17:20:51.225Z,7.10
2019-03-29T17:23:18.736Z,7.13
2019-03-29T17:25:46.057Z,6.97
2019-03-29T17:28:13.713Z,9.00
2019-03-29T17:30:43.010Z,7.63
2019-03-29T17:33:10.296Z,10.03
2019-03-29T17:35:37.736Z,8.57
2019-03-29T17:38:05.156Z,12.73
2019-03-29T17:40:32.846Z,8.40
2019-03-29T17:43:00.338Z,7.63
2019-03-29T17:45:27.937Z,10.10
2019-03-29T17:47:55.261Z,10.90
2019-03-29T17:50:25.319Z,8.83
2019-03-29T17:52:51.903Z,12.63
2019-03-29T17:55:19.204Z,9.67
2019-03-29T17:57:47.141Z,9.37
2019-03-29T18:00:17.352Z,8.13
2019-03-29T18:02:44.751Z,8.03
2019-03-29T18:05:12.918Z,9.07
2019-03-29T18:07:40.577Z,12.67
2019-03-29T18:10:09.044Z,16.50
2019-03-29T18:12:36.672Z,18.50
2019-03-29T18:15:05.356Z,18.73
2019-03-29T18:17:32.854Z,41.50
2019-03-29T18:20:00.370Z,69.73
2019-03-29T18:22:27.940Z,77.27
2019-03-29T18:24:55.252Z,100.90
2019-03-29T18:27:22.699Z,105.40
2019-03-29T18:29:50.029Z,78.47
2019-03-29T18:32:19.017Z,89.37
2019-03-29T18:34:46.338Z,115.40
2019-03-29T18:37:14.116Z,82.93
2019-03-29T18:39:41.798Z,55.87
2019-03-29T18:42:09.788Z,38.17
2019-03-29T18:44:37.331Z,45.53
2019-03-29T18:47:04.703Z,37.60
2019-03-29T18:49:32.053Z,28.17
2019-03-29T18:51:59.512Z,22.47
2019-03-29T18:54:27.530Z,23.30
2019-03-29T18:56:55.216Z,21.57
2019-03-29T18:59:22.524Z,15.37
2019-03-29T19:01:50.152Z,16.20
2019-03-29T19:04:17.469Z,13.77
2019-03-29T19:06:45.035Z,16.67
2019-03-29T19:09:12.492Z,14.33
2019-03-29T19:11:39.933Z,16.53
2019-03-29T19:14:07.425Z,14.17
2019-03-29T19:16:34.740Z,16.83
2019-03-29T19:19:09.880Z,14.33
2019-03-29T19:21:31.976Z,14.20
2019-03-29T19:23:59.391Z,15.23
2019-03-29T19:26:26.980Z,15.77
2019-03-29T19:28:54.600Z,15.40
2019-03-29T19:31:22.488Z,12.80
2019-03-29T19:33:50.934Z,12.63
2019-03-29T19:36:18.245Z,17.87
2019-03-29T19:38:45.555Z,13.40
2019-03-29T19:41:13.096Z,14.73
2019-03-29T19:43:40.549Z,15.40
2019-03-29T19:46:07.857Z,17.27
2019-03-29T19:48:35.284Z,15.60
2019-03-29T19:51:02.800Z,12.93
2019-03-29T19:53:30.210Z,44.33
2019-03-29T19:55:58.195Z,22.63
2019-03-29T19:58:25.904Z,13.80
2019-03-29T20:00:53.208Z,13.13
2019-03-29T20:03:20.858Z,12.40
2019-03-29T20:05:48.367Z,13.77
2019-03-29T20:08:15.935Z,13.53
2019-03-29T20:10:43.595Z,13.73
2019-03-29T20:13:11.057Z,12.27
2019-03-29T20:15:39.036Z,12.87
2019-03-29T20:18:06.570Z,10.73
2019-03-29T20:20:33.947Z,12.73
2019-03-29T20:23:02.512Z,12.13
2019-03-29T20:25:29.820Z,12.20
2019-03-29T20:27:58.609Z,12.13
2019-03-29T20:30:26.929Z,13.90
2019-03-29T20:32:54.296Z,14.03
2019-03-29T20:35:21.828Z,12.90
2019-03-29T20:37:49.226Z,13.43
2019-03-29T20:40:16.600Z,12.83
2019-03-29T20:42:44.068Z,13.73
2019-03-29T20:45:12.248Z,13.80
2019-03-29T20:47:42.413Z,13.43
2019-03-29T20:50:09.034Z,14.43
2019-03-29T20:52:36.539Z,12.60
2019-03-29T20:55:05.572Z,16.80
2019-03-29T20:57:32.888Z,14.07
2019-03-29T21:00:00.483Z,16.97
2019-03-29T21:02:27.822Z,14.37
2019-03-29T21:04:55.932Z,11.43
2019-03-29T21:07:23.255Z,12.63
2019-03-29T21:09:50.712Z,14.10
2019-03-29T21:12:18.168Z,15.53
2019-03-29T21:14:45.553Z,16.53
2019-03-29T21:17:13.284Z,12.47
2019-03-29T21:19:40.588Z,13.50
2019-03-29T21:22:07.901Z,15.33
2019-03-29T21:24:35.470Z,16.23
2019-03-29T21:27:02.811Z,12.23
2019-03-29T21:29:30.104Z,13.10
2019-03-29T21:31:57.619Z,14.03
2019-03-29T21:34:24.929Z,10.87
2019-03-29T21:36:52.315Z,11.87
2019-03-29T21:39:19.778Z,10.47
2019-03-29T21:41:47.465Z,8.97
2019-03-29T21:44:14.881Z,8.03
2019-03-29T21:46:42.339Z,9.40
2019-03-29T21:49:09.665Z,8.40
2019-03-29T21:51:37.245Z,8.03
2019-03-29T21:54:04.605Z,9.43
2019-03-29T21:56:31.905Z,8.17
2019-03-29T21:58:59.412Z,7.53
2019-03-29T22:01:26.719Z,6.43
2019-03-29T22:03:54.027Z,8.20
2019-03-29T22:06:21.404Z,7.73
2019-03-29T22:08:48.967Z,7.23
2019-03-29T22:11:16.491Z,8.17
2019-03-29T22:13:43.805Z,7.87
2019-03-29T22:16:11.108Z,8.43
2019-03-29T22:18:38.650Z,7.27
2019-03-29T22:21:05.981Z,8.10
2019-03-29T22:23:33.805Z,7.80
2019-03-29T22:26:01.564Z,8.27
2019-03-29T22:28:29.085Z,7.07
2019-03-29T22:30:56.385Z,9.37
2019-03-29T22:33:24.000Z,10.73
2019-03-29T22:35:51.304Z,7.40
2019-03-29T22:38:18.872Z,8.80
2019-03-29T22:40:46.339Z,9.53
2019-03-29T22:43:13.817Z,9.77
2019-03-29T22:45:41.130Z,11.77
2019-03-29T22:48:08.732Z,8.43
2019-03-29T22:50:36.035Z,11.53
2019-03-29T22:53:03.678Z,8.47
2019-03-29T22:55:30.976Z,8.97
2019-03-29T22:57:58.559Z,8.97
2019-03-29T23:00:38.232Z,9.03
2019-03-29T23:03:06.436Z,8.90
2019-03-29T23:05:33.776Z,7.93
2019-03-29T23:08:01.274Z,8.87
2019-03-29T23:10:28.836Z,8.13
2019-03-29T23:12:56.144Z,9.30
2019-03-29T23:15:23.648Z,9.53
2019-03-29T23:17:51.092Z,9.30
2019-03-29T23:20:18.397Z,10.10
2019-03-29T23:22:45.812Z,10.17
2019-03-29T23:25:13.294Z,10.33
2019-03-29T23:27:40.604Z,10.60
2019-03-29T23:30:08.395Z,39.80
2019-03-29T23:32:35.832Z,11.67
2019-03-29T23:35:04.055Z,10.90
2019-03-29T23:37:31.366Z,10.17
2019-03-29T23:39:59.032Z,13.43
2019-03-29T23:42:26.383Z,10.53
2019-03-29T23:44:53.704Z,11.90
2019-03-29T23:47:21.387Z,11.50
2019-03-29T23:49:49.867Z,9.10
2019-03-29T23:52:17.182Z,12.33
2019-03-29T23:54:44.484Z,11.23
2019-03-29T23:57:12.025Z,10.80
2019-03-29T23:59:39.388Z,8.03
